createdAt,value
2019-04-18T00:01:21.011Z,11263.4
2019-04-18T00:11:20.314Z,11263.5
2019-04-18T00:21:20.430Z,11263.5
2019-04-18T00:31:18.896Z,11263.6
2019-04-18T00:41:18.192Z,11263.6
2019-04-18T00:51:17.490Z,11263.7
2019-04-18T01:01:16.713Z,11263.8
2019-04-18T01:11:15.920Z,11263.9
2019-04-18T01:21:15.126Z,11263.9
2019-04-18T01:31:14.342Z,11264
2019-04-18T01:48:21.822Z,11263.8
2019-04-18T01:58:21.034Z,11263.9
2019-04-18T02:08:20.540Z,11263.9
2019-04-18T02:18:21.658Z,11264
2019-04-18T02:28:18.663Z,11264.1
2019-04-18T02:38:19.797Z,11264.1
2019-04-18T02:48:17.139Z,11264.2
2019-04-18T02:58:16.448Z,11264.3
2019-04-18T03:08:15.742Z,11264.3
2019-04-18T03:18:15.034Z,11264.4
2019-04-18T03:28:14.986Z,11264.5
2019-04-18T03:38:14.553Z,11264.5
2019-04-18T03:48:12.849Z,11264.6
2019-04-18T03:58:12.064Z,11264.6
2019-04-18T04:08:11.270Z,11264.7
2019-04-18T04:18:11.158Z,11264.8
2019-04-18T04:28:09.703Z,11264.8
2019-04-18T04:38:08.918Z,11264.9
2019-04-18T04:48:08.129Z,11265
2019-04-18T04:58:07.341Z,11265.1
2019-04-18T05:08:06.552Z,11265.2
2019-04-18T05:18:05.776Z,11265.3
2019-04-18T05:28:04.979Z,11265.3
2019-04-18T05:38:04.199Z,11265.4
2019-04-18T05:48:03.412Z,11265.4
2019-04-18T05:58:03.673Z,11265.5
2019-04-18T06:07:55.806Z,11265.4
2019-04-18T06:17:52.125Z,11265.5
2019-04-18T06:27:51.328Z,11265.6
2019-04-18T06:37:50.540Z,11265.7
2019-04-18T06:47:49.754Z,11265.7
2019-04-18T06:57:48.971Z,11265.8
2019-04-18T07:07:49.767Z,11265.8
2019-04-18T07:17:47.552Z,11265.9
2019-04-18T07:27:47.102Z,11265.9
2019-04-18T07:37:47.805Z,11265.9
2019-04-18T07:47:45.411Z,11266
2019-04-18T07:57:44.707Z,11266
2019-04-18T08:07:43.928Z,11266
2019-04-18T08:17:43.137Z,11266.1
2019-04-18T08:27:42.342Z,11266.1
2019-04-18T08:37:41.553Z,11266.2
2019-04-18T08:47:40.778Z,11266.2
2019-04-18T08:57:41.114Z,11266.3
2019-04-18T09:07:40.274Z,11266.3
2019-04-18T09:17:38.525Z,11266.4
2019-04-18T09:27:37.619Z,11266.4
2019-04-18T09:37:36.822Z,11266.5
2019-04-18T09:47:36.033Z,11266.5
2019-04-18T09:57:35.246Z,11266.5
2019-04-18T10:07:34.458Z,11266.6
2019-04-18T10:17:33.672Z,11266.6
2019-04-18T10:27:32.883Z,11266.7
2019-04-18T10:37:32.102Z,11266.8
2019-04-18T10:47:31.316Z,11266.8
2019-04-18T10:57:30.531Z,11266.8
2019-04-18T11:07:29.737Z,11266.9
2019-04-18T11:17:28.954Z,11266.9
2019-04-18T11:27:29.952Z,11267
2019-04-18T11:37:27.380Z,11267.1
2019-04-18T11:47:26.589Z,11267.1
2019-04-18T11:57:25.808Z,11267.1
2019-04-18T12:07:25.017Z,11267.2
2019-04-18T12:17:24.223Z,11267.3
2019-04-18T12:27:23.438Z,11267.3
2019-04-18T12:37:22.654Z,11267.4
2019-04-18T12:47:21.868Z,11267.4
2019-04-18T12:57:21.068Z,11267.5
2019-04-18T13:07:20.282Z,11267.5
2019-04-18T13:17:19.502Z,11267.5
2019-04-18T13:27:18.709Z,11267.6
2019-04-18T13:37:17.919Z,11267.6
2019-04-18T13:47:17.136Z,11267.7
2019-04-18T13:57:16.335Z,11267.8
2019-04-18T14:07:15.567Z,11267.8
2019-04-18T14:17:14.762Z,11267.9
2019-04-18T14:27:13.985Z,11267.9
2019-04-18T14:37:13.211Z,11268
2019-04-18T14:47:12.396Z,11268
2019-04-18T14:57:11.607Z,11268.1
2019-04-18T15:07:10.816Z,11268.1
2019-04-18T15:17:10.030Z,11268.2
2019-04-18T15:27:09.244Z,11268.3
2019-04-18T15:37:08.452Z,11268.4
2019-04-18T15:52:35.819Z,11268.2
2019-04-18T16:02:35.112Z,11268.2
2019-04-18T16:12:37.008Z,11268.3
2019-04-18T16:22:33.448Z,11268.3
2019-04-18T16:35:56.788Z,11268.1
2019-04-18T16:45:55.998Z,11268.2
2019-04-18T16:55:55.201Z,11268.2
2019-04-18T17:05:54.413Z,11268.3
2019-04-18T17:15:53.628Z,11268.4
2019-04-18T17:25:52.867Z,11268.5
2019-04-18T17:36:00.346Z,11268.5
2019-04-18T17:45:52.669Z,11268.6
2019-04-18T17:56:01.732Z,11268.6
2019-04-18T18:06:01.351Z,11268.7
2019-04-18T18:15:49.346Z,11268.7
2019-04-18T18:25:48.691Z,11268.8
2019-04-18T18:39:06.085Z,11268.8
2019-04-18T18:49:07.331Z,11268.9
2019-04-18T18:59:08.189Z,11269
2019-04-18T19:09:19.929Z,11269
2019-04-18T19:19:03.583Z,11269.1
2019-04-18T19:29:13.788Z,11269.1
2019-04-18T19:39:15.765Z,11269.2
2019-04-18T19:49:02.913Z,11269.2
2019-04-18T19:59:00.644Z,11269.3
2019-04-18T20:09:14.558Z,11269.4
2019-04-18T20:19:01.550Z,11269.4
2019-04-18T20:28:59.102Z,11269.5
2019-04-18T20:39:17.851Z,11269.6
2019-04-18T20:49:17.226Z,11269.6
2019-04-18T20:58:58.500Z,11269.7
2019-04-18T21:09:04.185Z,11269.8
2019-04-18T21:18:53.976Z,11269.8
2019-04-18T21:28:56.839Z,11269.9
2019-04-18T21:38:55.154Z,11270
2019-04-18T21:48:56.222Z,11270.1
2019-04-18T21:59:02.633Z,11270.1
2019-04-18T22:08:54.903Z,11270.2
2019-04-18T22:18:49.847Z,11270.3
2019-04-18T22:28:48.482Z,11270.3
2019-04-18T22:38:48.336Z,11270.4
2019-04-18T22:48:46.878Z,11270.5
2019-04-18T22:58:52.363Z,11270.6
2019-04-18T23:08:52.723Z,11270.6
2019-04-18T23:18:44.901Z,11270.7
2019-04-18T23:28:47.636Z,11270.8
2019-04-18T23:38:46.096Z,11270.9
2019-04-18T23:48:43.356Z,11270.9
2019-04-18T23:58:47.788Z,11271
